Time,TemperatureF,DewpointF,PressureIn,WindDirection,WindDirectionDegrees,WindSpeedMPH,WindSpeedGustMPH,Humidity,HourlyPrecipIn,Conditions,Clouds,dailyrainin,SoftwareType,DateUTC
2013-05-03 00:02:00,29.0,20.0,30.55,NE,44,2.0,5.0,68,0.00,,,0.00,,2013-05-03 05:02:00,
2013-05-03 00:12:00,29.0,20.0,30.55,NE,44,2.0,5.0,68,0.00,,,0.00,,2013-05-03 05:12:00,
2013-05-03 00:21:00,29.0,20.0,30.55,NNE,26,0.0,6.0,68,0.00,,,0.00,,2013-05-03 05:21:00,
2013-05-03 00:32:00,28.0,19.0,30.55,North,360,0.0,2.0,69,0.00,,,0.00,,2013-05-03 05:32:00,
2013-05-03 00:42:00,28.0,19.0,30.55,North,360,0.0,2.0,69,0.00,,,0.00,,2013-05-03 05:42:00,
2013-05-03 00:52:00,28.0,20.0,30.55,NNW,330,0.0,3.0,70,0.00,,,0.00,,2013-05-03 05:52:00,
2013-05-03 01:01:00,28.0,20.0,30.55,NW,325,1.0,5.0,70,0.00,,,0.00,,2013-05-03 06:01:00,
2013-05-03 01:11:00,28.0,20.0,30.55,NW,325,1.0,5.0,70,0.00,,,0.00,,2013-05-03 06:11:00,
2013-05-03 01:21:00,28.0,20.0,30.55,NW,325,1.0,5.0,70,0.00,,,0.00,,2013-05-03 06:21:00,
2013-05-03 01:32:00,27.0,19.0,30.55,NW,323,0.0,4.0,70,0.00,,,0.00,,2013-05-03 06:32:00,
2013-05-03 01:42:00,27.0,19.0,30.55,NW,323,0.0,4.0,70,0.00,,,0.00,,2013-05-03 06:42:00,
2013-05-03 01:51:00,27.0,19.0,30.54,WNW,290,1.0,4.0,70,0.00,,,0.00,,2013-05-03 06:51:00,
2013-05-03 02:01:00,26.0,18.0,30.54,WNW,290,0.0,4.0,71,0.00,,,0.00,,2013-05-03 07:01:00,
2013-05-03 02:11:00,26.0,18.0,30.54,WNW,290,0.0,4.0,71,0.00,,,0.00,,2013-05-03 07:11:00,
2013-05-03 02:21:00,26.0,18.0,30.53,WNW,290,0.0,2.0,72,0.00,,,0.00,,2013-05-03 07:21:00,
2013-05-03 02:31:00,26.0,19.0,30.53,WNW,290,1.0,3.0,73,0.00,,,0.00,,2013-05-03 07:31:00,
2013-05-03 02:42:00,26.0,19.0,30.53,WNW,290,1.0,3.0,73,0.00,,,0.00,,2013-05-03 07:42:00,
2013-05-03 02:52:00,26.0,19.0,30.52,NW,306,0.0,3.0,73,0.00,,,0.00,,2013-05-03 07:52:00,
2013-05-03 03:02:00,26.0,19.0,30.51,NW,306,0.0,2.0,73,0.00,,,0.00,,2013-05-03 08:02:00,
2013-05-03 03:11:00,26.0,19.0,30.51,NW,306,0.0,2.0,73,0.00,,,0.00,,2013-05-03 08:11:00,
2013-05-03 03:21:00,25.0,18.0,30.51,NW,306,0.0,3.0,73,0.00,,,0.00,,2013-05-03 08:21:00,
2013-05-03 03:32:00,25.0,18.0,30.50,NW,306,0.0,3.0,74,0.00,,,0.00,,2013-05-03 08:32:00,
2013-05-03 03:42:00,25.0,18.0,30.50,NW,306,0.0,3.0,74,0.00,,,0.00,,2013-05-03 08:42:00,
2013-05-03 03:52:00,25.0,18.0,30.50,WNW,292,0.0,3.0,73,0.00,,,0.00,,2013-05-03 08:52:00,
2013-05-03 04:01:00,25.0,18.0,30.50,WNW,294,1.0,3.0,74,0.00,,,0.00,,2013-05-03 09:01:00,
2013-05-03 04:12:00,25.0,18.0,30.50,WNW,294,1.0,3.0,74,0.00,,,0.00,,2013-05-03 09:12:00,
2013-05-03 04:21:00,25.0,18.0,30.49,WNW,294,0.0,3.0,73,0.00,,,0.00,,2013-05-03 09:21:00,
2013-05-03 04:32:00,25.0,18.0,30.49,WNW,296,0.0,3.0,74,0.00,,,0.00,,2013-05-03 09:32:00,
2013-05-03 04:42:00,25.0,18.0,30.49,WNW,296,0.0,3.0,74,0.00,,,0.00,,2013-05-03 09:42:00,
2013-05-03 04:52:00,25.0,18.0,30.49,NW,320,1.0,4.0,74,0.00,,,0.00,,2013-05-03 09:52:00,
2013-05-03 05:02:00,25.0,18.0,30.48,NNW,331,2.0,6.0,73,0.00,,,0.00,,2013-05-03 10:02:00,
2013-05-03 05:12:00,25.0,18.0,30.48,NNW,331,2.0,6.0,73,0.00,,,0.00,,2013-05-03 10:12:00,
2013-05-03 05:22:00,25.0,18.0,30.48,NNW,333,1.0,5.0,73,0.00,,,0.00,,2013-05-03 10:22:00,
2013-05-03 05:32:00,25.0,18.0,30.49,NW,313,1.0,4.0,74,0.00,,,0.00,,2013-05-03 10:32:00,
2013-05-03 05:42:00,25.0,18.0,30.49,NW,313,1.0,4.0,74,0.00,,,0.00,,2013-05-03 10:42:00,
2013-05-03 05:52:00,24.0,17.0,30.48,NW,321,1.0,5.0,74,0.00,,,0.00,,2013-05-03 10:52:00,
2013-05-03 06:02:00,24.0,17.0,30.48,NW,321,0.0,4.0,74,0.00,,,0.00,,2013-05-03 11:02:00,
2013-05-03 06:11:00,24.0,17.0,30.48,NW,321,0.0,4.0,74,0.00,,,0.00,,2013-05-03 11:11:00,
2013-05-03 06:22:00,24.0,17.0,30.48,NNW,341,0.0,5.0,74,0.00,,,0.00,,2013-05-03 11:22:00,
2013-05-03 06:32:00,24.0,17.0,30.48,NNW,339,0.0,4.0,74,0.00,,,0.00,,2013-05-03 11:32:00,
2013-05-03 06:42:00,24.0,17.0,30.48,NNW,339,0.0,4.0,74,0.00,,,0.00,,2013-05-03 11:42:00,
2013-05-03 06:51:00,24.0,17.0,30.47,NW,305,1.0,3.0,74,0.00,,,0.00,,2013-05-03 11:51:00,
2013-05-03 07:01:00,24.0,17.0,30.47,NW,323,2.0,6.0,75,0.00,,,0.00,,2013-05-03 12:01:00,
2013-05-03 07:11:00,24.0,17.0,30.47,NW,323,2.0,6.0,75,0.00,,,0.00,,2013-05-03 12:11:00,
2013-05-03 07:21:00,25.0,18.0,30.47,WNW,291,2.0,5.0,74,0.00,,,0.00,,2013-05-03 12:21:00,
2013-05-03 07:32:00,26.0,19.0,30.47,WNW,284,3.0,6.0,73,0.00,,,0.00,,2013-05-03 12:32:00,
2013-05-03 07:42:00,26.0,19.0,30.47,WNW,284,3.0,6.0,73,0.00,,,0.00,,2013-05-03 12:42:00,
2013-05-03 07:51:00,26.0,19.0,30.48,North,355,1.0,8.0,73,0.00,,,0.00,,2013-05-03 12:51:00,
2013-05-03 08:01:00,27.0,19.0,30.47,North,355,2.0,6.0,72,0.00,,,0.00,,2013-05-03 13:01:00,
2013-05-03 08:11:00,27.0,19.0,30.47,North,355,2.0,6.0,72,0.00,,,0.00,,2013-05-03 13:11:00,
2013-05-03 08:22:00,29.0,21.0,30.48,NE,36,1.0,7.0,71,0.00,,,0.00,,2013-05-03 13:22:00,
2013-05-03 08:32:00,29.0,20.0,30.47,West,273,1.0,8.0,68,0.00,,,0.00,,2013-05-03 13:32:00,
2013-05-03 08:42:00,29.0,20.0,30.47,West,273,1.0,8.0,68,0.00,,,0.00,,2013-05-03 13:42:00,
2013-05-03 08:52:00,30.0,20.0,30.46,NW,322,3.0,8.0,67,0.00,,,0.00,,2013-05-03 13:52:00,
2013-05-03 09:02:00,31.0,20.0,30.46,NNW,344,2.0,8.0,64,0.00,,,0.00,,2013-05-03 14:02:00,
2013-05-03 09:11:00,31.0,20.0,30.46,NNW,344,2.0,8.0,64,0.00,,,0.00,,2013-05-03 14:11:00,
2013-05-03 09:22:00,33.0,20.0,30.45,NNE,19,2.0,7.0,58,0.00,,,0.00,,2013-05-03 14:22:00,
2013-05-03 09:32:00,33.0,19.0,30.45,North,5,3.0,9.0,55,0.00,,,0.00,,2013-05-03 14:32:00,
2013-05-03 09:42:00,33.0,19.0,30.45,North,5,3.0,9.0,55,0.00,,,0.00,,2013-05-03 14:42:00,
2013-05-03 09:52:00,34.0,17.0,30.43,North,360,5.0,11.0,49,0.00,,,0.00,,2013-05-03 14:52:00,
2013-05-03 10:01:00,35.0,18.0,30.43,ENE,75,4.0,9.0,49,0.00,,,0.00,,2013-05-03 15:01:00,
2013-05-03 10:11:00,35.0,18.0,30.43,ENE,75,4.0,9.0,49,0.00,,,0.00,,2013-05-03 15:11:00,
2013-05-03 10:22:00,35.0,18.0,30.43,NE,38,6.0,11.0,49,0.00,,,0.00,,2013-05-03 15:22:00,
2013-05-03 10:32:00,35.0,17.0,30.42,NW,310,6.0,13.0,48,0.00,,,0.00,,2013-05-03 15:32:00,
2013-05-03 10:43:00,35.0,17.0,30.42,NW,310,6.0,13.0,48,0.00,,,0.00,,2013-05-03 15:43:00,
2013-05-03 10:53:00,36.0,17.0,30.42,North,9,4.0,10.0,45,0.00,,,0.00,,2013-05-03 15:53:00,
2013-05-03 11:03:00,36.0,17.0,30.42,ENE,63,3.0,10.0,45,0.00,,,0.00,,2013-05-03 16:03:00,
2013-05-03 11:13:00,36.0,17.0,30.42,ENE,63,3.0,10.0,45,0.00,,,0.00,,2013-05-03 16:13:00,
2013-05-03 11:22:00,36.0,16.0,30.41,East,80,7.0,16.0,43,0.00,,,0.00,,2013-05-03 16:22:00,
2013-05-03 11:32:00,37.0,22.0,30.41,North,10,5.0,11.0,54,0.00,,,0.00,,2013-05-03 16:32:00,
2013-05-03 11:42:00,37.0,22.0,30.41,North,10,5.0,11.0,54,0.00,,,0.00,,2013-05-03 16:42:00,
2013-05-03 11:52:00,38.0,25.0,30.40,NNW,340,5.0,14.0,58,0.00,,,0.00,,2013-05-03 16:52:00,
2013-05-03 12:02:00,38.0,25.0,30.40,NE,49,6.0,13.0,59,0.00,,,0.00,,2013-05-03 17:02:00,
2013-05-03 12:12:00,38.0,25.0,30.40,NE,49,6.0,13.0,59,0.00,,,0.00,,2013-05-03 17:12:00,
2013-05-03 12:23:00,39.0,26.0,30.39,WNW,302,5.0,11.0,59,0.00,,,0.00,,2013-05-03 17:23:00,
2013-05-03 12:32:00,39.0,25.0,30.38,NE,42,8.0,13.0,58,0.00,,,0.00,,2013-05-03 17:32:00,
2013-05-03 12:42:00,39.0,25.0,30.38,NE,42,8.0,13.0,58,0.00,,,0.00,,2013-05-03 17:42:00,
2013-05-03 12:51:00,40.0,26.0,30.38,NE,38,6.0,10.0,58,0.00,,,0.00,,2013-05-03 17:51:00,
2013-05-03 13:01:00,41.0,27.0,30.36,NNE,12,8.0,15.0,56,0.00,,,0.00,,2013-05-03 18:01:00,
2013-05-03 13:12:00,41.0,27.0,30.36,NNE,12,8.0,15.0,56,0.00,,,0.00,,2013-05-03 18:12:00,
2013-05-03 13:21:00,41.0,27.0,30.35,West,259,5.0,15.0,56,0.00,,,0.00,,2013-05-03 18:21:00,
2013-05-03 13:32:00,42.0,27.0,30.34,North,355,4.0,17.0,56,0.00,,,0.00,,2013-05-03 18:32:00,
2013-05-03 13:42:00,42.0,27.0,30.34,North,355,4.0,17.0,56,0.00,,,0.00,,2013-05-03 18:42:00,
2013-05-03 13:51:00,42.0,27.0,30.34,SE,143,6.0,13.0,55,0.00,,,0.00,,2013-05-03 18:51:00,
2013-05-03 14:01:00,43.0,27.0,30.33,NNE,17,7.0,15.0,53,0.00,,,0.00,,2013-05-03 19:01:00,
2013-05-03 14:11:00,43.0,27.0,30.33,NNE,17,7.0,15.0,53,0.00,,,0.00,,2013-05-03 19:11:00,
2013-05-03 14:21:00,43.0,28.0,30.32,NNE,14,7.0,15.0,54,0.00,,,0.00,,2013-05-03 19:21:00,
2013-05-03 14:32:00,44.0,28.0,30.32,NW,315,7.0,14.0,52,0.00,,,0.00,,2013-05-03 19:32:00,
2013-05-03 14:42:00,44.0,28.0,30.32,NW,315,7.0,14.0,52,0.00,,,0.00,,2013-05-03 19:42:00,
2013-05-03 14:52:00,45.0,29.0,30.32,NE,37,8.0,14.0,53,0.00,,,0.00,,2013-05-03 19:52:00,
2013-05-03 15:02:00,45.0,29.0,30.31,ENE,75,9.0,15.0,53,0.00,,,0.00,,2013-05-03 20:02:00,
2013-05-03 15:11:00,45.0,29.0,30.31,ENE,75,9.0,15.0,53,0.00,,,0.00,,2013-05-03 20:11:00,
2013-05-03 15:21:00,46.0,29.0,30.31,NNE,26,5.0,17.0,52,0.00,,,0.00,,2013-05-03 20:21:00,
2013-05-03 15:32:00,46.0,29.0,30.30,NNE,29,9.0,16.0,51,0.00,,,0.00,,2013-05-03 20:32:00,
2013-05-03 15:42:00,46.0,29.0,30.30,NNE,29,9.0,16.0,51,0.00,,,0.00,,2013-05-03 20:42:00,
2013-05-03 15:52:00,46.0,29.0,30.29,North,360,5.0,14.0,52,0.00,,,0.00,,2013-05-03 20:52:00,
2013-05-03 16:01:00,48.0,30.0,30.29,NNE,13,4.0,16.0,49,0.00,,,0.00,,2013-05-03 21:01:00,
2013-05-03 16:11:00,48.0,30.0,30.29,NNE,13,4.0,16.0,49,0.00,,,0.00,,2013-05-03 21:11:00,
2013-05-03 16:21:00,47.0,29.0,30.28,NNW,335,4.0,16.0,50,0.00,,,0.00,,2013-05-03 21:21:00,
2013-05-03 16:33:00,48.0,29.0,30.27,NE,45,9.0,14.0,47,0.00,,,0.00,,2013-05-03 21:33:00,
2013-05-03 16:42:00,48.0,29.0,30.27,NE,45,9.0,14.0,47,0.00,,,0.00,,2013-05-03 21:42:00,
2013-05-03 16:52:00,49.0,29.0,30.27,NW,317,7.0,14.0,45,0.00,,,0.00,,2013-05-03 21:52:00,
2013-05-03 17:02:00,49.0,29.0,30.26,NE,34,8.0,18.0,46,0.00,,,0.00,,2013-05-03 22:02:00,
2013-05-03 17:13:00,49.0,29.0,30.26,NE,34,8.0,18.0,46,0.00,,,0.00,,2013-05-03 22:13:00,
2013-05-03 17:22:00,49.0,28.0,30.26,North,355,8.0,17.0,44,0.00,,,0.00,,2013-05-03 22:22:00,
2013-05-03 17:32:00,50.0,29.0,30.25,NNW,328,6.0,15.0,45,0.00,,,0.00,,2013-05-03 22:32:00,
2013-05-03 17:42:00,50.0,29.0,30.25,NNW,328,6.0,15.0,45,0.00,,,0.00,,2013-05-03 22:42:00,
2013-05-03 17:52:00,49.0,29.0,30.25,NNW,336,5.0,16.0,46,0.00,,,0.00,,2013-05-03 22:52:00,
2013-05-03 18:02:00,49.0,29.0,30.24,North,349,9.0,16.0,45,0.00,,,0.00,,2013-05-03 23:02:00,
2013-05-03 18:11:00,49.0,29.0,30.24,North,349,9.0,16.0,45,0.00,,,0.00,,2013-05-03 23:11:00,
2013-05-03 18:21:00,49.0,30.0,30.24,East,79,3.0,13.0,47,0.00,,,0.00,,2013-05-03 23:21:00,
2013-05-03 18:31:00,48.0,29.0,30.24,NW,315,6.0,16.0,47,0.00,,,0.00,,2013-05-03 23:31:00,
2013-05-03 18:41:00,48.0,29.0,30.24,NW,315,6.0,16.0,47,0.00,,,0.00,,2013-05-03 23:41:00,
2013-05-03 18:52:00,48.0,29.0,30.24,ENE,70,7.0,14.0,48,0.00,,,0.00,,2013-05-03 23:52:00,
2013-05-03 19:01:00,48.0,29.0,30.24,NNE,28,7.0,14.0,47,0.00,,,0.00,,2013-05-04 00:01:00,
2013-05-03 19:11:00,48.0,29.0,30.24,NNE,28,7.0,14.0,47,0.00,,,0.00,,2013-05-04 00:11:00,
2013-05-03 19:23:00,48.0,29.0,30.24,North,5,5.0,14.0,48,0.00,,,0.00,,2013-05-04 00:23:00,
2013-05-03 19:32:00,47.0,29.0,30.24,NE,36,2.0,14.0,49,0.00,,,0.00,,2013-05-04 00:32:00,
2013-05-03 19:41:00,47.0,29.0,30.24,NE,36,2.0,14.0,49,0.00,,,0.00,,2013-05-04 00:41:00,
2013-05-03 19:52:00,47.0,29.0,30.24,NNE,15,5.0,11.0,49,0.00,,,0.00,,2013-05-04 00:52:00,
2013-05-03 20:01:00,47.0,29.0,30.24,WNW,288,5.0,11.0,50,0.00,,,0.00,,2013-05-04 01:01:00,
2013-05-03 20:11:00,47.0,29.0,30.24,WNW,288,5.0,11.0,50,0.00,,,0.00,,2013-05-04 01:11:00,
2013-05-03 20:21:00,47.0,30.0,30.24,NNE,15,2.0,9.0,51,0.00,,,0.00,,2013-05-04 01:21:00,
2013-05-03 20:32:00,46.0,29.0,30.24,NNW,333,3.0,10.0,51,0.00,,,0.00,,2013-05-04 01:32:00,
2013-05-03 20:41:00,46.0,29.0,30.24,NNW,333,3.0,10.0,51,0.00,,,0.00,,2013-05-04 01:41:00,
2013-05-03 20:52:00,46.0,29.0,30.24,NNE,30,3.0,10.0,52,0.00,,,0.00,,2013-05-04 01:52:00,
2013-05-03 21:02:00,46.0,29.0,30.24,NW,305,4.0,10.0,52,0.00,,,0.00,,2013-05-04 02:02:00,
2013-05-03 21:11:00,46.0,29.0,30.24,NW,305,4.0,10.0,52,0.00,,,0.00,,2013-05-04 02:11:00,
2013-05-03 21:21:00,45.0,28.0,30.25,North,350,4.0,9.0,52,0.00,,,0.00,,2013-05-04 02:21:00,
2013-05-03 21:32:00,44.0,27.0,30.25,NE,55,4.0,8.0,50,0.00,,,0.00,,2013-05-04 02:32:00,
2013-05-03 21:41:00,44.0,27.0,30.25,NE,55,4.0,8.0,50,0.00,,,0.00,,2013-05-04 02:41:00,
2013-05-03 21:52:00,44.0,27.0,30.25,ENE,65,3.0,7.0,51,0.00,,,0.00,,2013-05-04 02:52:00,
2013-05-03 22:02:00,44.0,27.0,30.25,ENE,76,6.0,11.0,51,0.00,,,0.00,,2013-05-04 03:02:00,
2013-05-03 22:11:00,44.0,27.0,30.25,ENE,76,6.0,11.0,51,0.00,,,0.00,,2013-05-04 03:11:00,
2013-05-03 22:22:00,43.0,27.0,30.25,ENE,76,4.0,8.0,52,0.00,,,0.00,,2013-05-04 03:22:00,
2013-05-03 22:33:00,43.0,26.0,30.25,ENE,70,8.0,12.0,51,0.00,,,0.00,,2013-05-04 03:33:00,
2013-05-03 22:43:00,43.0,26.0,30.25,ENE,70,8.0,12.0,51,0.00,,,0.00,,2013-05-04 03:43:00,
2013-05-03 22:52:00,43.0,26.0,30.25,NE,42,4.0,10.0,51,0.00,,,0.00,,2013-05-04 03:52:00,
2013-05-03 23:02:00,43.0,27.0,30.26,ENE,74,3.0,6.0,52,0.00,,,0.00,,2013-05-04 04:02:00,
2013-05-03 23:12:00,43.0,27.0,30.26,ENE,74,3.0,6.0,52,0.00,,,0.00,,2013-05-04 04:12:00,
2013-05-03 23:22:00,43.0,27.0,30.25,ENE,61,2.0,7.0,53,0.00,,,0.00,,2013-05-04 04:22:00,
2013-05-03 23:33:00,42.0,27.0,30.25,NE,44,0.0,5.0,55,0.00,,,0.00,,2013-05-04 04:33:00,
2013-05-03 23:42:00,42.0,27.0,30.25,NE,44,0.0,5.0,55,0.00,,,0.00,,2013-05-04 04:42:00,
2013-05-03 23:52:00,42.0,27.0,30.24,NNE,29,1.0,4.0,56,0.00,,,0.00,,2013-05-04 04:52:00,